Time;durP1;ratioP1;P1;durP2;ratioP2;P2;SDS_P1;SDS_P2;PMS_P1;PMS_P2;Temp;Humidity;BMP_temperature;BMP_pressure;BME280_temperature;BME280_humidity;BME280_pressure;Samples;Min_cycle;Max_cycle;Signal;HPM_P1;HPM_P2
2024/01/24 05:43:21;;;;;;;17.10;7.80;;;;;;;-2.02;100.00;101140.77;112762;1241;22356;-45
2024/01/24 05:45:51;;;;;;;19.90;10.90;;;;;;;-2.04;100.00;101134.75;112740;1240;23061;-46
2024/01/24 05:48:18;;;;;;;21.60;11.10;;;;;;;-2.06;100.00;101144.77;112959;1238;22395;-52
2024/01/24 05:50:44;;;;;;;22.40;11.00;;;;;;;-2.04;100.00;101151.57;113024;1237;22445;-52
2024/01/24 05:53:11;;;;;;;25.30;11.40;;;;;;;-2.02;100.00;101151.50;112829;1248;22468;-45
2024/01/24 05:55:38;;;;;;;19.00;10.00;;;;;;;-2.03;100.00;101147.37;112976;1241;22353;-47
2024/01/24 05:58:07;;;;;;;16.30;9.50;;;;;;;-2.04;100.00;101145.07;112922;1238;22373;-45
2024/01/24 06:00:34;;;;;;;26.80;10.50;;;;;;;-2.03;100.00;101144.94;113016;1243;22341;-45
2024/01/24 06:03:01;;;;;;;18.30;11.40;;;;;;;-2.03;100.00;101142.08;112953;1243;22261;-46
2024/01/24 06:05:28;;;;;;;29.10;12.20;;;;;;;-2.02;100.00;101141.46;112884;1239;22376;-47
2024/01/24 06:07:55;;;;;;;20.50;12.20;;;;;;;-2.00;100.00;101137.27;112917;1248;22389;-54
2024/01/24 06:10:22;;;;;;;20.60;11.70;;;;;;;-1.98;100.00;101139.76;112915;1247;22356;-46
2024/01/24 06:12:49;;;;;;;23.80;12.60;;;;;;;-1.95;100.00;101137.78;112907;1239;22423;-48
2024/01/24 06:15:18;;;;;;;21.60;11.40;;;;;;;-1.91;100.00;101131.36;112992;1238;22369;-47
2024/01/24 06:17:44;;;;;;;25.70;13.20;;;;;;;-1.87;100.00;101133.63;112919;1249;23209;-52
2024/01/24 06:20:12;;;;;;;23.60;12.50;;;;;;;-1.86;100.00;101134.77;112829;1238;23041;-51
2024/01/24 06:22:39;;;;;;;24.50;13.00;;;;;;;-1.82;100.00;101131.89;112854;1241;22396;-51
2024/01/24 06:25:07;;;;;;;26.00;13.40;;;;;;;-1.79;100.00;101129.74;112780;1237;22861;-50
2024/01/24 06:27:41;;;;;;;24.00;12.90;;;;;;;-1.75;100.00;101131.68;112604;1249;23670;-51
2024/01/24 06:30:30;;;;;;;26.70;13.70;;;;;;;-1.73;100.00;101136.77;112487;1249;23037;-46
2024/01/24 06:33:51;;;;;;;20.00;11.50;;;;;;;-1.72;100.00;101138.71;112169;1249;22313;-47
2024/01/24 06:37:24;;;;;;;23.70;12.60;;;;;;;-1.76;100.00;101144.25;112940;1247;22195;31
2024/01/24 06:41:24;;;;;;;24.30;12.20;;;;;;;-1.81;100.00;101151.84;112224;1252;22325;-50
2024/01/24 06:52:54;;;;;;;36.80;19.40;;;;;;;-1.76;100.00;101153.16;112451;1240;22412;-47
2024/01/24 06:55:56;;;;;;;36.30;19.00;;;;;;;-1.77;100.00;101150.91;112452;1251;22317;-53
2024/01/24 06:59:05;;;;;;;33.40;18.30;;;;;;;-1.77;100.00;101145.77;112556;1251;22485;-46
2024/01/24 07:01:34;;;;;;;35.50;18.70;;;;;;;-1.76;100.00;101142.88;112228;1251;22768;-51
2024/01/24 07:04:02;;;;;;;35.10;20.00;;;;;;;-1.74;100.00;101140.77;112387;1251;22468;-48
2024/01/24 07:06:30;;;;;;;40.60;20.50;;;;;;;-1.73;100.00;101129.06;112431;1251;23204;-50
2024/01/24 07:08:58;;;;;;;35.30;20.80;;;;;;;-1.71;100.00;101125.75;112570;1251;23060;-46
2024/01/24 07:11:26;;;;;;;42.00;23.60;;;;;;;-1.68;100.00;101123.02;112660;1251;23242;-47
2024/01/24 07:13:55;;;;;;;40.80;19.90;;;;;;;-1.65;100.00;101116.22;112408;1240;22390;-52
2024/01/24 07:16:31;;;;;;;39.30;22.20;;;;;;;-1.62;100.00;101112.30;112369;1251;22407;-47
2024/01/24 07:38:00;;;;;;;32.80;18.50;;;;;;;-1.33;100.00;101088.73;108492;1251;22190;-57
2024/01/24 07:40:58;;;;;;;29.00;15.50;;;;;;;-1.27;100.00;101087.17;112385;1251;22912;-56
2024/01/24 07:43:49;;;;;;;29.90;14.40;;;;;;;-1.21;100.00;101078.98;112405;1251;22423;-48
2024/01/24 07:46:16;;;;;;;31.50;17.20;;;;;;;-1.15;100.00;101076.83;112495;1247;22259;-55
2024/01/24 07:48:43;;;;;;;33.90;16.30;;;;;;;-1.11;100.00;101077.06;112458;1241;22399;-56
2024/01/24 07:51:10;;;;;;;26.70;13.30;;;;;;;-1.09;100.00;101080.59;112591;1251;22174;-56
2024/01/24 07:53:38;;;;;;;25.70;13.70;;;;;;;-1.04;100.00;101079.48;112622;1241;22423;-56
2024/01/24 07:56:06;;;;;;;32.90;15.40;;;;;;;-1.01;100.00;101074.02;112601;1241;22383;-48
2024/01/24 07:58:50;;;;;;;25.40;15.40;;;;;;;-0.99;100.00;101071.20;112581;1242;23115;-56
2024/01/24 08:01:17;;;;;;;29.20;17.10;;;;;;;-1.00;100.00;101069.63;112652;1251;22306;-56
2024/01/24 08:03:45;;;;;;;26.30;15.10;;;;;;;-0.96;100.00;101072.29;112687;1240;22447;-55
2024/01/24 08:06:23;;;;;;;31.10;16.50;;;;;;;-0.90;100.00;101070.08;112519;1251;23097;-55
2024/01/24 08:08:51;;;;;;;28.20;17.60;;;;;;;-0.85;100.00;101067.08;112713;1251;22840;-55
2024/01/24 08:11:31;;;;;;;29.80;18.50;;;;;;;-0.84;100.00;101076.23;112449;1242;22353;-48
2024/01/24 08:14:05;;;;;;;35.00;19.10;;;;;;;-0.82;100.00;101081.15;112210;1251;22258;-57
2024/01/24 08:16:46;;;;;;;36.30;21.60;;;;;;;-0.80;100.00;101085.37;112312;1251;22984;-50
2024/01/24 08:19:25;;;;;;;40.10;24.60;;;;;;;-0.81;100.00;101087.20;112236;1251;23017;-49
2024/01/24 08:21:54;;;;;;;45.00;26.20;;;;;;;-0.82;100.00;101095.86;112597;1240;22240;-48
2024/01/24 08:24:21;;;;;;;45.10;25.90;;;;;;;-0.83;100.00;101100.77;112465;1245;22253;-46
2024/01/24 08:26:50;;;;;;;41.30;24.00;;;;;;;-0.83;100.00;101097.51;112317;1251;22663;-46
2024/01/24 08:29:49;;;;;;;50.70;26.70;;;;;;;-0.81;100.00;101094.41;112403;1251;22392;-55
2024/01/24 08:32:42;;;;;;;48.50;27.50;;;;;;;-0.74;100.00;101100.23;112315;1251;22416;-54
2024/01/24 08:35:36;;;;;;;44.70;24.50;;;;;;;-0.68;100.00;101100.81;112447;1251;22560;-41
2024/01/24 08:38:28;;;;;;;38.00;21.30;;;;;;;-0.69;100.00;101097.96;112445;1251;22371;-42
2024/01/24 08:41:28;;;;;;;30.70;16.00;;;;;;;-0.77;100.00;101099.03;112542;1251;22747;-51
2024/01/24 08:44:38;;;;;;;26.40;15.90;;;;;;;-0.84;100.00;101091.62;112403;1251;22434;-43
2024/01/24 08:47:43;;;;;;;27.40;15.80;;;;;;;-0.86;100.00;101081.76;112453;1251;23254;-56
2024/01/24 08:51:06;;;;;;;20.50;11.50;;;;;;;-0.85;100.00;101076.17;112490;1251;22752;-53
2024/01/24 08:54:24;;;;;;;23.60;14.00;;;;;;;-0.84;100.00;101066.31;112486;1248;22445;-58
2024/01/24 08:58:05;;;;;;;21.80;12.40;;;;;;;-0.79;100.00;101063.52;112455;1251;22427;-53
2024/01/24 09:00:47;;;;;;;31.50;16.20;;;;;;;-0.73;100.00;101049.09;112216;1251;22849;-48
2024/01/24 09:03:56;;;;;;;32.00;17.30;;;;;;;-0.68;100.00;101030.70;112509;1251;22366;-46
2024/01/24 09:07:20;;;;;;;45.20;25.30;;;;;;;-0.66;100.00;101028.25;112207;1251;22366;-54
2024/01/24 09:09:59;;;;;;;47.20;25.30;;;;;;;-0.64;100.00;101031.11;112061;1251;22269;-54
2024/01/24 09:12:47;;;;;;;40.20;22.20;;;;;;;-0.65;100.00;101022.34;112280;1251;22508;-55
2024/01/24 09:15:42;;;;;;;34.80;20.10;;;;;;;-0.62;100.00;101010.16;112483;1251;22376;-48
2024/01/24 09:18:30;;;;;;;34.80;19.30;;;;;;;-0.54;100.00;101004.25;112348;1251;23123;-55
2024/01/24 09:21:10;;;;;;;31.60;17.70;;;;;;;-0.45;100.00;100995.83;112232;1251;22404;-53
2024/01/24 09:23:55;;;;;;;34.90;18.90;;;;;;;-0.40;100.00;100992.50;112307;1251;22831;-55
2024/01/24 09:26:35;;;;;;;33.70;16.90;;;;;;;-0.37;100.00;100991.82;112460;1251;23187;-55
2024/01/24 09:29:15;;;;;;;39.10;18.50;;;;;;;-0.34;100.00;100983.58;112245;1251;22731;-49
2024/01/24 09:31:45;;;;;;;33.40;18.20;;;;;;;-0.34;100.00;100972.98;112257;1251;22839;-48
2024/01/24 09:34:12;;;;;;;32.70;17.70;;;;;;;-0.32;100.00;100968.98;112507;1251;23186;-48
2024/01/24 09:36:39;;;;;;;27.80;16.70;;;;;;;-0.26;100.00;100963.98;112515;1245;22392;-56
2024/01/24 09:39:09;;;;;;;30.10;17.70;;;;;;;-0.21;100.00;100956.00;112526;1251;22545;-49
2024/01/24 09:41:40;;;;;;;28.10;17.20;;;;;;;-0.18;100.00;100954.63;112510;1251;22236;-54
2024/01/24 09:44:14;;;;;;;31.60;16.50;;;;;;;-0.19;100.00;100946.14;112394;1251;22245;-55
2024/01/24 09:46:41;;;;;;;28.30;15.70;;;;;;;-0.23;100.00;100944.05;112090;1251;22224;-55
2024/01/24 09:53:46;;;;;;;28.90;15.80;;;;;;;-0.23;100.00;100936.30;112439;1242;22434;-55
2024/01/24 10:02:11;;;;;;;29.50;14.20;;;;;;;-0.27;100.00;100913.70;112505;1251;22435;-53
2024/01/24 10:22:53;;;;;;;31.00;16.70;;;;;;;-0.32;100.00;100893.04;112687;1251;22355;-49
2024/01/24 10:34:04;;;;;;;30.40;18.50;;;;;;;-0.26;100.00;100878.76;112559;1249;22339;-49
2024/01/24 10:41:49;;;;;;;36.70;21.70;;;;;;;-0.19;100.00;100872.94;112704;1251;22433;-56
2024/01/24 10:53:22;;;;;;;28.70;16.30;;;;;;;-0.23;100.00;100849.58;112823;1251;23284;-50
2024/01/24 10:56:27;;;;;;;29.80;15.80;;;;;;;-0.23;100.00;100845.14;112700;1251;23143;-55
2024/01/24 10:59:55;;;;;;;24.50;13.60;;;;;;;-0.20;100.00;100837.23;112812;1251;22939;-55
2024/01/24 11:07:33;;;;;;;22.10;12.50;;;;;;;-0.17;100.00;100811.32;112712;1251;22373;-56
2024/01/24 11:10:56;;;;;;;23.60;11.90;;;;;;;-0.17;100.00;100804.48;112729;1251;22414;-55
2024/01/24 11:14:30;;;;;;;24.50;13.00;;;;;;;-0.16;100.00;100792.67;112508;1251;22410;-46
2024/01/24 11:18:27;;;;;;;20.90;11.90;;;;;;;-0.15;100.00;100783.33;112671;1251;22415;-52
2024/01/24 11:30:11;;;;;;;26.10;13.80;;;;;;;-0.08;100.00;100773.02;112671;1251;22542;-48
2024/01/24 11:34:29;;;;;;;23.50;13.60;;;;;;;-0.07;100.00;100768.45;112661;1251;22986;-52
2024/01/24 11:37:51;;;;;;;19.00;11.10;;;;;;;-0.05;100.00;100765.99;112652;1251;22402;-52
2024/01/24 11:42:21;;;;;;;16.10;9.70;;;;;;;-0.06;100.00;100755.30;112640;1251;22352;-51
2024/01/24 11:58:10;;;;;;;19.60;10.70;;;;;;;0.08;100.00;100711.23;112745;1251;23225;-48
2024/01/24 12:01:02;;;;;;;13.70;8.80;;;;;;;0.09;100.00;100695.14;112691;1251;22794;-51
2024/01/24 12:04:11;;;;;;;20.80;10.60;;;;;;;0.09;100.00;100683.64;112555;1251;23189;-51
2024/01/24 12:06:56;;;;;;;17.40;10.30;;;;;;;0.08;100.00;100680.31;112484;1251;22334;-52
2024/01/24 12:09:24;;;;;;;17.90;9.50;;;;;;;0.06;100.00;100678.02;112583;1251;22193;-52
2024/01/24 12:11:51;;;;;;;18.20;10.70;;;;;;;0.05;100.00;100673.81;112563;1251;22386;-47
2024/01/24 12:14:17;;;;;;;16.60;10.20;;;;;;;0.03;100.00;100667.40;112438;1251;23452;-47
2024/01/24 12:16:45;;;;;;;20.50;12.40;;;;;;;0.03;100.00;100658.81;112448;1251;22482;-47
2024/01/24 12:19:14;;;;;;;21.80;10.90;;;;;;;0.03;100.00;100650.06;112596;1251;22418;-45
2024/01/24 12:21:41;;;;;;;25.20;14.20;;;;;;;0.04;100.00;100645.98;112500;1251;22964;-50
2024/01/24 12:24:08;;;;;;;32.00;17.40;;;;;;;0.04;100.00;100643.09;112348;1251;22894;-47
2024/01/24 12:26:36;;;;;;;47.10;24.50;;;;;;;0.05;100.00;100643.98;112339;1251;23165;-47
2024/01/24 12:29:07;;;;;;;52.70;29.60;;;;;;;0.06;100.00;100648.20;112555;1251;22297;-45
2024/01/24 12:31:38;;;;;;;47.00;27.10;;;;;;;0.04;100.00;100643.45;112477;1251;22394;-51
2024/01/24 12:34:07;;;;;;;39.90;23.80;;;;;;;0.04;100.00;100642.38;112551;1251;23215;-46
2024/01/24 12:36:35;;;;;;;43.10;24.50;;;;;;;0.05;100.00;100642.94;112602;1251;22363;-49
2024/01/24 12:39:04;;;;;;;42.80;25.50;;;;;;;0.05;100.00;100641.39;112568;1251;23353;-47
2024/01/24 12:41:32;;;;;;;39.20;24.10;;;;;;;0.08;100.00;100643.94;112489;1252;22402;-46
2024/01/24 12:43:59;;;;;;;47.20;25.90;;;;;;;0.11;100.00;100641.55;112595;1251;23241;-46
2024/01/24 12:46:27;;;;;;;41.10;23.30;;;;;;;0.09;100.00;100636.31;112664;1251;22344;-51
2024/01/24 12:48:58;;;;;;;41.80;24.30;;;;;;;0.09;100.00;100641.77;112758;1251;22380;-47
2024/01/24 12:51:25;;;;;;;43.60;26.60;;;;;;;0.09;100.00;100643.83;112828;1251;22380;-47
2024/01/24 12:53:53;;;;;;;38.10;22.90;;;;;;;0.08;100.00;100641.92;112812;1251;22464;-52
2024/01/24 12:56:20;;;;;;;37.60;22.10;;;;;;;0.09;100.00;100643.14;112784;1251;22391;-52
2024/01/24 12:58:47;;;;;;;44.70;24.80;;;;;;;0.09;100.00;100645.91;112609;1251;22397;-51
2024/01/24 13:01:15;;;;;;;38.70;20.60;;;;;;;0.09;100.00;100641.79;112839;1251;22399;-53
2024/01/24 13:03:42;;;;;;;32.20;17.70;;;;;;;0.10;100.00;100642.17;112768;1251;22397;-46
2024/01/24 13:06:09;;;;;;;23.40;13.70;;;;;;;0.09;100.00;100645.56;112836;1251;23187;-53
2024/01/24 13:08:37;;;;;;;18.90;12.20;;;;;;;0.08;100.00;100646.00;112809;1251;22399;-53
2024/01/24 13:11:04;;;;;;;19.50;10.80;;;;;;;0.04;100.00;100641.55;112650;1251;22431;-52
2024/01/24 13:13:31;;;;;;;17.90;10.40;;;;;;;0.01;100.00;100643.29;112856;1251;22296;-53
2024/01/24 13:15:58;;;;;;;16.00;11.00;;;;;;;-0.00;100.00;100638.77;112850;1251;22501;-46
2024/01/24 13:18:25;;;;;;;18.10;10.60;;;;;;;-0.02;100.00;100634.59;112889;1243;22382;-46
2024/01/24 13:20:52;;;;;;;20.70;11.50;;;;;;;-0.04;100.00;100638.80;112868;1251;22374;-51
2024/01/24 13:23:20;;;;;;;20.90;11.20;;;;;;;-0.07;100.00;100637.59;112874;1251;22245;-52
2024/01/24 13:25:47;;;;;;;20.20;10.90;;;;;;;-0.09;100.00;100634.92;112859;1251;22329;-51
2024/01/24 13:28:14;;;;;;;23.20;11.00;;;;;;;-0.11;100.00;100627.80;112723;1251;22384;-47
2024/01/24 13:30:41;;;;;;;17.80;11.70;;;;;;;-0.13;100.00;100624.09;112877;1251;22320;-52
2024/01/24 13:33:09;;;;;;;19.30;12.10;;;;;;;-0.15;100.00;100620.06;112870;1251;22444;-51
2024/01/24 13:35:36;;;;;;;25.30;12.40;;;;;;;-0.14;100.00;100612.71;112837;1251;22489;-47
2024/01/24 13:38:03;;;;;;;19.20;11.10;;;;;;;-0.14;100.00;100610.17;112823;1251;22292;-46
2024/01/24 13:40:31;;;;;;;23.60;12.00;;;;;;;-0.14;100.00;100608.79;112837;1251;22456;-46
2024/01/24 13:42:58;;;;;;;20.00;12.00;;;;;;;-0.14;100.00;100602.60;112844;1251;23109;-48
2024/01/24 13:45:24;;;;;;;21.60;11.90;;;;;;;-0.14;100.00;100596.63;112861;1251;22392;-46
2024/01/24 13:47:51;;;;;;;20.20;11.20;;;;;;;-0.15;100.00;100588.87;112856;1251;22410;-46
2024/01/24 13:50:18;;;;;;;25.40;13.90;;;;;;;-0.15;100.00;100583.88;112835;1251;22372;-52
2024/01/24 13:52:46;;;;;;;24.90;12.70;;;;;;;-0.16;100.00;100581.78;112875;1251;22407;-47
2024/01/24 13:55:13;;;;;;;18.30;10.90;;;;;;;-0.16;100.00;100585.73;112870;1251;22218;-46
2024/01/24 13:57:41;;;;;;;23.80;12.10;;;;;;;-0.16;100.00;100583.14;112875;1251;23648;-52
2024/01/24 14:00:13;;;;;;;18.20;11.20;;;;;;;-0.17;100.00;100574.02;112885;1251;22342;-47
2024/01/24 14:02:41;;;;;;;18.60;11.00;;;;;;;-0.18;100.00;100565.90;112864;1251;22420;-48
2024/01/24 14:05:09;;;;;;;18.10;9.70;;;;;;;-0.18;100.00;100563.83;112898;1251;22355;-47
2024/01/24 14:07:38;;;;;;;16.50;9.60;;;;;;;-0.18;100.00;100557.85;112669;1251;22432;-47
2024/01/24 14:10:06;;;;;;;20.10;11.20;;;;;;;-0.17;100.00;100554.50;112885;1251;22368;-46
2024/01/24 14:12:33;;;;;;;20.60;12.30;;;;;;;-0.17;100.00;100552.42;112875;1251;22175;-47
2024/01/24 14:15:00;;;;;;;21.70;11.50;;;;;;;-0.18;100.00;100552.54;112904;1251;23105;-46
2024/01/24 14:17:34;;;;;;;21.20;11.90;;;;;;;-0.19;100.00;100549.72;112888;1251;23113;-51
2024/01/24 14:20:01;;;;;;;20.20;10.70;;;;;;;-0.21;100.00;100546.92;112888;1251;22399;-51
2024/01/24 14:22:30;;;;;;;19.00;11.30;;;;;;;-0.22;100.00;100538.65;112870;1251;22423;-51
2024/01/24 14:24:58;;;;;;;22.80;11.90;;;;;;;-0.22;100.00;100537.42;112894;1251;22368;-51
2024/01/24 14:27:26;;;;;;;18.90;11.60;;;;;;;-0.23;100.00;100539.63;112866;1251;22395;-46
2024/01/24 14:29:54;;;;;;;24.20;11.90;;;;;;;-0.22;100.00;100545.16;112840;1251;22300;-45
2024/01/24 14:32:22;;;;;;;24.30;12.20;;;;;;;-0.21;100.00;100544.68;112905;1251;22461;-45
2024/01/24 14:34:49;;;;;;;21.00;11.90;;;;;;;-0.21;100.00;100544.50;112865;1251;22359;-51
2024/01/24 14:37:17;;;;;;;22.50;11.50;;;;;;;-0.22;100.00;100541.21;112866;1251;23075;-52
2024/01/24 14:45:27;;;;;;;15.90;10.10;;;;;;;-0.28;100.00;100538.70;112857;1251;22443;-47
2024/01/24 14:47:54;;;;;;;19.70;11.10;;;;;;;-0.29;100.00;100537.27;112915;1251;22423;-46
